createdAt,value
2023-05-17T00:02:15.019Z,6.82
2023-05-17T00:04:42.101Z,11.05
2023-05-17T00:07:09.091Z,7.78
2023-05-17T00:09:36.480Z,7.93
2023-05-17T00:12:04.819Z,7.72
2023-05-17T00:14:32.721Z,7.22
2023-05-17T00:16:59.693Z,7.78
2023-05-17T00:19:26.979Z,6.85
2023-05-17T00:21:54.068Z,8.50
2023-05-17T00:24:21.004Z,6.40
2023-05-17T00:26:49.752Z,6.95
2023-05-17T00:29:27.012Z,8.73
2023-05-17T00:31:54.026Z,7.68
2023-05-17T00:34:21.190Z,8.00
2023-05-17T00:36:48.143Z,7.20
2023-05-17T00:39:15.234Z,7.10
2023-05-17T00:41:42.853Z,6.35
2023-05-17T00:44:18.501Z,11.00
2023-05-17T00:46:46.886Z,8.52
2023-05-17T00:49:19.912Z,8.00
2023-05-17T00:51:47.011Z,9.25
2023-05-17T00:54:15.517Z,9.63
2023-05-17T00:56:42.941Z,11.02
2023-05-17T00:59:19.272Z,7.82
2023-05-17T01:01:48.432Z,7.75
2023-05-17T01:04:15.868Z,7.43
2023-05-17T01:06:43.041Z,9.85
2023-05-17T01:09:10.401Z,7.43
2023-05-17T01:11:55.092Z,8.73
2023-05-17T01:14:31.419Z,12.43
2023-05-17T01:17:04.420Z,8.82
2023-05-17T01:20:06.782Z,8.35
2023-05-17T01:22:47.800Z,9.40
2023-05-17T01:25:16.625Z,8.93
2023-05-17T01:27:45.683Z,12.15
2023-05-17T01:30:14.523Z,7.50
2023-05-17T01:32:43.636Z,9.32
2023-05-17T01:35:12.570Z,7.25
2023-05-17T01:37:40.078Z,8.05
2023-05-17T01:40:09.625Z,8.57
2023-05-17T01:42:42.920Z,7.53
2023-05-17T01:45:21.949Z,9.10
2023-05-17T01:48:09.973Z,9.90
2023-05-17T01:50:38.892Z,11.25
2023-05-17T01:53:19.681Z,12.27
2023-05-17T01:56:07.709Z,8.40
2023-05-17T01:58:45.973Z,8.23
2023-05-17T02:01:19.786Z,9.68
2023-05-17T02:03:50.647Z,12.15
2023-05-17T02:06:18.474Z,8.57
2023-05-17T02:08:45.623Z,12.70
2023-05-17T02:11:12.464Z,8.77
2023-05-17T02:13:40.676Z,11.13
2023-05-17T02:16:07.642Z,7.75
2023-05-17T02:18:36.091Z,8.73
2023-05-17T02:21:04.736Z,9.80
2023-05-17T02:23:31.761Z,10.02
2023-05-17T02:25:58.879Z,10.30
2023-05-17T02:28:27.298Z,9.77
2023-05-17T02:30:54.760Z,9.05
2023-05-17T02:33:21.806Z,9.95
2023-05-17T02:36:11.529Z,11.27
2023-05-17T02:38:38.453Z,10.32
2023-05-17T02:41:05.374Z,9.05
2023-05-17T02:43:32.239Z,10.85
2023-05-17T02:45:59.292Z,13.65
2023-05-17T02:48:26.391Z,9.75
2023-05-17T02:50:53.573Z,9.93
2023-05-17T02:53:20.317Z,8.13
2023-05-17T02:55:47.667Z,8.98
2023-05-17T02:58:14.762Z,8.65
2023-05-17T03:00:46.469Z,9.88
2023-05-17T03:03:13.431Z,12.15
2023-05-17T03:05:40.454Z,9.20
2023-05-17T03:08:07.493Z,10.35
2023-05-17T03:10:34.720Z,8.45
2023-05-17T03:13:04.734Z,10.23
2023-05-17T03:15:34.641Z,11.30
2023-05-17T03:18:01.633Z,11.82
2023-05-17T03:20:28.630Z,10.50
2023-05-17T03:22:55.674Z,10.55
2023-05-17T03:25:22.615Z,10.75
2023-05-17T03:27:49.454Z,12.30
2023-05-17T03:30:16.315Z,19.63
2023-05-17T03:32:43.132Z,10.93
2023-05-17T03:35:10.242Z,11.98
2023-05-17T03:37:37.457Z,9.52
2023-05-17T03:40:05.325Z,11.82
2023-05-17T03:42:32.389Z,14.52
2023-05-17T03:44:59.377Z,11.18
2023-05-17T03:47:26.465Z,10.65
2023-05-17T03:49:53.874Z,11.93
2023-05-17T03:52:20.795Z,13.57
2023-05-17T03:54:48.358Z,13.30
2023-05-17T03:57:15.373Z,12.82
2023-05-17T03:59:42.404Z,11.73
2023-05-17T04:02:09.483Z,10.98
2023-05-17T04:04:36.458Z,11.82
2023-05-17T04:07:04.495Z,9.75
2023-05-17T04:09:32.307Z,10.95
2023-05-17T04:11:59.352Z,11.02
2023-05-17T04:14:26.119Z,11.02
2023-05-17T04:16:56.188Z,13.30
2023-05-17T04:19:30.318Z,11.45
2023-05-17T04:22:00.188Z,13.95
2023-05-17T04:24:30.238Z,14.98
2023-05-17T04:26:58.122Z,12.10
2023-05-17T04:29:26.640Z,11.90
2023-05-17T04:31:53.677Z,11.18
2023-05-17T04:34:22.573Z,11.48
2023-05-17T04:36:49.910Z,12.10
2023-05-17T04:39:18.333Z,11.25
2023-05-17T04:41:45.225Z,17.23
2023-05-17T04:44:12.708Z,14.23
2023-05-17T04:46:41.615Z,14.88
2023-05-17T04:49:08.816Z,15.38
2023-05-17T04:51:36.387Z,14.82
2023-05-17T04:54:12.119Z,17.10
2023-05-17T04:56:49.955Z,14.80
2023-05-17T04:59:16.891Z,15.65
2023-05-17T05:01:48.405Z,11.98
2023-05-17T05:04:20.247Z,7.20
2023-05-17T05:06:47.557Z,3.83
2023-05-17T05:09:14.281Z,1.20
2023-05-17T05:11:41.452Z,1.63
2023-05-17T05:14:08.470Z,1.20
2023-05-17T05:16:36.670Z,2.85
2023-05-17T05:19:03.940Z,4.05
2023-05-17T05:21:31.218Z,1.05
2023-05-17T05:23:58.160Z,7.15
2023-05-17T05:26:26.404Z,1.15
2023-05-17T05:28:54.405Z,3.03
2023-05-17T05:31:21.562Z,3.80
2023-05-17T05:33:48.609Z,1.40
2023-05-17T05:36:15.723Z,2.17
2023-05-17T05:38:42.611Z,2.53
2023-05-17T05:41:09.630Z,3.90
2023-05-17T05:43:37.958Z,0.80
2023-05-17T05:46:05.186Z,4.43
2023-05-17T05:48:32.413Z,4.57
2023-05-17T05:50:59.516Z,0.75
2023-05-17T05:53:26.572Z,0.60
2023-05-17T05:55:53.645Z,2.25
2023-05-17T05:58:20.988Z,0.43
2023-05-17T06:00:48.468Z,0.95
2023-05-17T06:03:15.660Z,0.57
2023-05-17T06:05:45.024Z,0.55
2023-05-17T06:08:19.348Z,4.47
2023-05-17T06:10:49.451Z,0.47
2023-05-17T06:13:19.437Z,0.45
2023-05-17T06:15:46.345Z,0.40
2023-05-17T06:18:13.444Z,3.03
2023-05-17T06:20:43.857Z,6.43
2023-05-17T06:23:10.837Z,0.65
2023-05-17T06:25:37.715Z,0.73
2023-05-17T06:28:05.950Z,0.47
2023-05-17T06:30:33.126Z,0.30
2023-05-17T06:33:00.426Z,0.68
2023-05-17T06:35:28.404Z,0.88
2023-05-17T06:37:57.386Z,0.95
2023-05-17T06:40:24.502Z,1.65
2023-05-17T06:42:51.576Z,0.32
2023-05-17T06:45:22.184Z,2.47
2023-05-17T06:47:49.349Z,2.63
2023-05-17T06:50:16.550Z,1.15
2023-05-17T06:52:49.340Z,2.65
2023-05-17T06:55:16.471Z,6.00
2023-05-17T06:57:43.414Z,0.90
2023-05-17T07:00:13.189Z,2.33
2023-05-17T07:02:43.258Z,2.30
2023-05-17T07:05:10.649Z,0.70
2023-05-17T07:07:37.793Z,0.30
2023-05-17T07:10:06.786Z,0.98
2023-05-17T07:12:34.226Z,0.70
2023-05-17T07:15:01.266Z,0.70
2023-05-17T07:17:29.229Z,0.55
2023-05-17T07:19:56.315Z,0.38
2023-05-17T07:22:23.328Z,0.60
2023-05-17T07:24:50.298Z,0.75
2023-05-17T07:27:17.276Z,1.00
2023-05-17T07:29:44.331Z,0.95
2023-05-17T07:32:13.335Z,0.40
2023-05-17T07:34:40.460Z,0.40
2023-05-17T07:37:07.517Z,0.63
2023-05-17T07:39:34.504Z,1.60
2023-05-17T07:42:03.242Z,0.40
2023-05-17T07:44:32.690Z,0.93
2023-05-17T07:47:02.296Z,0.63
2023-05-17T07:49:31.108Z,4.30
2023-05-17T07:51:58.433Z,2.08
2023-05-17T07:54:28.992Z,0.40
2023-05-17T07:57:01.155Z,0.50
2023-05-17T07:59:28.022Z,0.43
2023-05-17T08:01:55.074Z,1.20
2023-05-17T08:04:24.449Z,0.60
2023-05-17T08:06:55.649Z,0.55
2023-05-17T08:09:22.623Z,0.95
2023-05-17T08:11:49.844Z,5.72
2023-05-17T08:14:17.625Z,0.88
2023-05-17T08:16:46.416Z,2.50
2023-05-17T08:19:15.076Z,1.95
2023-05-17T08:21:42.969Z,2.85
2023-05-17T08:24:10.251Z,3.20
2023-05-17T08:26:49.570Z,0.40
2023-05-17T08:29:16.443Z,3.15
2023-05-17T08:31:43.489Z,0.90
2023-05-17T08:34:10.528Z,0.90
2023-05-17T08:36:40.242Z,0.50
2023-05-17T08:39:08.810Z,0.40
2023-05-17T08:41:39.048Z,1.00
2023-05-17T08:44:06.704Z,1.05
2023-05-17T08:46:35.273Z,0.38
2023-05-17T08:49:04.371Z,0.50
2023-05-17T08:51:32.821Z,1.15
2023-05-17T08:54:00.142Z,0.55
2023-05-17T08:56:31.398Z,0.63
2023-05-17T08:58:59.611Z,0.90
2023-05-17T09:01:28.367Z,2.97
2023-05-17T09:03:56.669Z,0.55
2023-05-17T09:06:27.111Z,3.53
2023-05-17T09:08:55.383Z,1.23
2023-05-17T09:11:30.150Z,2.17
2023-05-17T09:14:07.819Z,0.55
2023-05-17T09:16:46.547Z,3.58
2023-05-17T09:19:20.328Z,0.88
2023-05-17T09:21:51.009Z,2.97
2023-05-17T09:24:27.331Z,1.98
2023-05-17T09:26:54.295Z,0.28
2023-05-17T09:29:23.704Z,1.63
2023-05-17T09:31:50.587Z,1.55
2023-05-17T09:34:19.818Z,2.40
2023-05-17T09:36:47.068Z,0.15
2023-05-17T09:39:15.354Z,4.85
2023-05-17T09:41:43.392Z,1.20
2023-05-17T09:44:17.065Z,1.13
2023-05-17T09:46:49.716Z,3.70
2023-05-17T09:49:18.006Z,0.85
2023-05-17T09:51:49.847Z,4.30
2023-05-17T09:54:17.988Z,0.90
2023-05-17T09:56:45.260Z,1.75
2023-05-17T09:59:18.095Z,0.35
2023-05-17T10:01:45.922Z,1.23
2023-05-17T10:04:19.307Z,0.98
2023-05-17T10:06:51.464Z,8.77
2023-05-17T10:09:22.249Z,1.98
2023-05-17T10:12:02.636Z,1.55
2023-05-17T10:14:35.246Z,3.55
2023-05-17T10:17:03.630Z,3.08
2023-05-17T10:19:33.415Z,3.42
2023-05-17T10:22:18.874Z,1.08
2023-05-17T10:25:04.729Z,1.30
2023-05-17T10:27:45.041Z,1.90
2023-05-17T10:30:14.736Z,1.45
2023-05-17T10:32:43.336Z,0.93
2023-05-17T10:35:15.471Z,4.57
2023-05-17T10:37:42.381Z,10.00
2023-05-17T10:40:14.156Z,0.30
2023-05-17T10:42:51.163Z,1.75
2023-05-17T10:45:25.229Z,0.82
2023-05-17T10:47:53.294Z,1.45
2023-05-17T10:50:27.588Z,4.72
2023-05-17T10:52:56.712Z,0.87
2023-05-17T10:55:27.833Z,1.13
2023-05-17T10:58:17.340Z,0.30
2023-05-17T11:00:47.744Z,0.73
2023-05-17T11:03:26.318Z,0.60
2023-05-17T11:06:23.344Z,2.75
2023-05-17T11:09:19.592Z,0.32
2023-05-17T11:12:05.253Z,0.47
2023-05-17T11:14:53.617Z,1.08
2023-05-17T11:17:50.426Z,0.77
2023-05-17T11:20:26.525Z,1.27
2023-05-17T11:23:15.333Z,0.45
2023-05-17T11:25:42.308Z,2.55
2023-05-17T11:28:09.301Z,1.60
2023-05-17T11:30:43.712Z,0.57
2023-05-17T11:33:29.087Z,4.03
2023-05-17T11:36:07.843Z,3.20
2023-05-17T11:38:34.943Z,1.70
2023-05-17T11:41:26.526Z,0.77
2023-05-17T11:43:54.808Z,4.78
2023-05-17T11:46:24.367Z,1.38
2023-05-17T11:48:53.504Z,1.08
2023-05-17T11:51:24.443Z,0.40
2023-05-17T11:54:04.248Z,1.15
2023-05-17T11:56:43.582Z,0.30
2023-05-17T11:59:12.614Z,2.33
2023-05-17T12:01:46.832Z,2.35
2023-05-17T12:04:14.319Z,0.93
2023-05-17T12:06:41.930Z,0.40
2023-05-17T12:09:11.405Z,0.57
2023-05-17T12:11:39.768Z,0.73
2023-05-17T12:14:09.802Z,2.88
2023-05-17T12:16:39.532Z,0.45
2023-05-17T12:19:19.475Z,1.38
2023-05-17T12:21:47.471Z,0.43
2023-05-17T12:24:17.364Z,1.23
2023-05-17T12:26:45.883Z,0.75
2023-05-17T12:29:18.222Z,0.63
2023-05-17T12:31:49.317Z,1.17
2023-05-17T12:34:18.375Z,5.20
2023-05-17T12:36:46.019Z,0.80
2023-05-17T12:39:14.668Z,1.00
2023-05-17T12:41:43.258Z,0.90
2023-05-17T12:44:16.400Z,0.63
2023-05-17T12:46:45.137Z,2.08
2023-05-17T12:49:19.305Z,1.38
2023-05-17T12:51:47.062Z,1.93
2023-05-17T12:54:30.968Z,0.50
2023-05-17T12:56:57.958Z,2.30
2023-05-17T12:59:26.141Z,2.85
2023-05-17T13:01:58.226Z,1.15
2023-05-17T13:04:33.695Z,1.13
2023-05-17T13:07:03.454Z,2.10
2023-05-17T13:09:32.638Z,0.60
2023-05-17T13:12:07.423Z,0.75
2023-05-17T13:14:37.624Z,4.82
2023-05-17T13:17:06.480Z,3.40
2023-05-17T13:19:33.730Z,3.08
2023-05-17T13:22:00.966Z,2.47
2023-05-17T13:24:28.458Z,1.58
2023-05-17T13:26:55.506Z,1.95
2023-05-17T13:29:35.305Z,1.75
2023-05-17T13:32:07.487Z,4.93
2023-05-17T13:34:34.685Z,2.72
2023-05-17T13:37:02.140Z,1.98
2023-05-17T13:39:29.085Z,2.65
2023-05-17T13:41:59.332Z,2.15
2023-05-17T13:44:26.436Z,2.30
2023-05-17T13:46:55.884Z,1.58
2023-05-17T13:49:22.814Z,3.58
2023-05-17T13:51:50.225Z,1.65
2023-05-17T13:54:20.836Z,4.82
2023-05-17T13:56:48.780Z,3.88
2023-05-17T13:59:15.706Z,2.13
2023-05-17T14:01:43.659Z,7.25
2023-05-17T14:04:10.968Z,2.95
2023-05-17T14:06:39.328Z,1.38
2023-05-17T14:09:06.620Z,1.50
2023-05-17T14:11:34.312Z,8.32
2023-05-17T14:14:01.492Z,2.55
2023-05-17T14:16:28.765Z,3.55
2023-05-17T14:18:56.032Z,1.77
2023-05-17T14:21:23.188Z,1.60
2023-05-17T14:23:50.302Z,1.98
2023-05-17T14:26:17.345Z,6.07
2023-05-17T14:28:44.497Z,2.33
2023-05-17T14:31:11.457Z,4.88
2023-05-17T14:33:38.409Z,4.45
2023-05-17T14:36:05.501Z,1.55
2023-05-17T14:38:44.963Z,5.22
2023-05-17T14:41:19.295Z,3.92
2023-05-17T14:43:46.203Z,8.57
2023-05-17T14:46:16.444Z,2.75
2023-05-17T14:48:46.543Z,2.22
2023-05-17T14:51:13.482Z,2.65
2023-05-17T14:53:40.496Z,2.25
2023-05-17T14:56:08.231Z,0.75
2023-05-17T14:58:35.993Z,3.45
2023-05-17T15:01:06.842Z,1.88
2023-05-17T15:03:35.034Z,1.35
2023-05-17T15:06:05.675Z,1.98
2023-05-17T15:08:40.725Z,3.03
2023-05-17T15:11:10.145Z,2.60
2023-05-17T15:13:37.105Z,3.70
2023-05-17T15:16:04.284Z,4.68
2023-05-17T15:18:31.490Z,1.20
2023-05-17T15:20:58.482Z,0.88
2023-05-17T15:23:25.482Z,3.28
2023-05-17T15:25:52.420Z,1.27
2023-05-17T15:28:21.371Z,2.85
2023-05-17T15:30:48.247Z,3.20
2023-05-17T15:33:15.419Z,1.65
2023-05-17T15:35:43.634Z,0.80
2023-05-17T15:38:11.202Z,6.35
2023-05-17T15:40:38.208Z,1.48
2023-05-17T15:43:05.470Z,1.52
2023-05-17T15:45:32.806Z,1.27
2023-05-17T15:48:02.109Z,1.38
2023-05-17T15:50:29.159Z,1.92
2023-05-17T15:52:57.283Z,3.58
2023-05-17T15:55:24.498Z,1.90
2023-05-17T15:57:54.419Z,1.27
2023-05-17T16:00:22.049Z,3.78
2023-05-17T16:02:49.118Z,0.75
2023-05-17T16:05:19.223Z,1.10
2023-05-17T16:07:46.639Z,1.30
2023-05-17T16:10:13.417Z,3.72
2023-05-17T16:12:40.487Z,4.05
2023-05-17T16:15:08.247Z,1.52
2023-05-17T16:17:35.540Z,2.22
2023-05-17T16:20:02.901Z,2.20
2023-05-17T16:22:30.168Z,1.70
2023-05-17T16:24:57.318Z,1.77
2023-05-17T16:27:24.362Z,1.58
2023-05-17T16:29:51.185Z,0.55
2023-05-17T16:32:18.366Z,1.85
2023-05-17T16:34:45.346Z,2.67
2023-05-17T16:37:12.345Z,1.02
2023-05-17T16:39:39.669Z,2.10
2023-05-17T16:42:09.557Z,1.33
2023-05-17T16:44:49.116Z,3.15
2023-05-17T16:47:16.134Z,1.92
2023-05-17T16:49:46.090Z,0.80
2023-05-17T16:52:16.004Z,1.05
2023-05-17T16:54:42.961Z,1.70
2023-05-17T16:57:16.478Z,1.23
2023-05-17T16:59:43.328Z,1.13
2023-05-17T17:02:10.650Z,0.70
2023-05-17T17:04:43.823Z,1.50
2023-05-17T17:07:15.818Z,4.43
2023-05-17T17:09:43.036Z,0.88
2023-05-17T17:12:23.034Z,1.27
2023-05-17T17:14:51.318Z,2.58
2023-05-17T17:17:18.272Z,3.45
2023-05-17T17:19:47.539Z,1.35
2023-05-17T17:22:15.086Z,2.38
2023-05-17T17:24:42.938Z,1.48
2023-05-17T17:27:10.019Z,1.33
2023-05-17T17:29:37.629Z,1.88
2023-05-17T17:32:05.310Z,1.05
2023-05-17T17:34:32.285Z,1.80
2023-05-17T17:37:03.398Z,0.57
2023-05-17T17:39:33.088Z,0.65
2023-05-17T17:42:00.165Z,1.05
2023-05-17T17:44:27.159Z,1.55
2023-05-17T17:46:55.038Z,1.20
2023-05-17T17:49:32.944Z,1.92
2023-05-17T17:52:00.052Z,1.33
2023-05-17T17:54:27.121Z,1.33
2023-05-17T17:56:54.193Z,1.80
2023-05-17T17:59:21.201Z,0.80
2023-05-17T18:01:48.339Z,3.72
2023-05-17T18:04:16.507Z,0.77
2023-05-17T18:06:43.954Z,0.43
2023-05-17T18:09:10.740Z,0.98
2023-05-17T18:11:38.669Z,2.10
2023-05-17T18:14:06.364Z,1.13
2023-05-17T18:16:33.492Z,0.40
2023-05-17T18:19:01.351Z,3.20
2023-05-17T18:21:29.659Z,0.40
2023-05-17T18:23:56.678Z,3.55
2023-05-17T18:26:23.736Z,0.65
2023-05-17T18:28:51.360Z,1.05
2023-05-17T18:31:18.947Z,1.20
2023-05-17T18:33:46.048Z,1.27
2023-05-17T18:36:15.662Z,5.43
2023-05-17T18:38:45.704Z,0.88
2023-05-17T18:41:12.787Z,1.15
2023-05-17T18:43:39.799Z,2.05
2023-05-17T18:46:06.772Z,1.13
2023-05-17T18:48:36.689Z,2.65
2023-05-17T18:51:17.009Z,0.52
2023-05-17T18:53:44.472Z,0.98
2023-05-17T18:56:25.453Z,0.60
2023-05-17T18:58:58.097Z,3.25
2023-05-17T19:01:29.829Z,0.88
2023-05-17T19:03:57.226Z,3.05
2023-05-17T19:06:25.264Z,0.50
2023-05-17T19:08:52.216Z,2.05
2023-05-17T19:11:19.111Z,1.13
2023-05-17T19:13:48.862Z,1.13
2023-05-17T19:16:17.826Z,1.45
2023-05-17T19:18:48.451Z,2.28
2023-05-17T19:21:15.657Z,1.00
2023-05-17T19:23:45.782Z,0.70
2023-05-17T19:26:12.603Z,0.50
2023-05-17T19:28:40.195Z,1.27
2023-05-17T19:31:12.910Z,0.60
2023-05-17T19:33:40.264Z,0.82
2023-05-17T19:36:10.249Z,0.75
2023-05-17T19:38:37.124Z,0.60
2023-05-17T19:41:04.105Z,1.30
2023-05-17T19:43:32.525Z,4.35
2023-05-17T19:45:59.584Z,0.63
2023-05-17T19:48:27.015Z,0.80
2023-05-17T19:50:56.673Z,4.32
2023-05-17T19:53:24.089Z,0.57
2023-05-17T19:56:02.134Z,0.75
2023-05-17T19:58:29.453Z,2.95
2023-05-17T20:01:04.330Z,2.13
2023-05-17T20:03:31.570Z,0.47
2023-05-17T20:05:58.626Z,1.40
2023-05-17T20:08:25.927Z,1.23
2023-05-17T20:10:55.809Z,1.40
2023-05-17T20:13:26.395Z,1.63
2023-05-17T20:15:53.451Z,5.47
2023-05-17T20:18:20.692Z,2.40
2023-05-17T20:20:47.576Z,1.73
2023-05-17T20:23:14.402Z,4.90
2023-05-17T20:25:41.875Z,5.40
2023-05-17T20:28:08.804Z,1.15
2023-05-17T20:30:35.883Z,0.70
2023-05-17T20:33:03.099Z,2.58
2023-05-17T20:35:30.206Z,1.75
2023-05-17T20:37:57.299Z,1.73
2023-05-17T20:40:24.602Z,2.55
2023-05-17T20:42:53.156Z,3.53
2023-05-17T20:45:20.164Z,2.88
2023-05-17T20:47:48.351Z,1.60
2023-05-17T20:50:17.700Z,1.58
2023-05-17T20:52:49.326Z,3.33
2023-05-17T20:55:16.277Z,1.50
2023-05-17T20:57:44.015Z,1.80
2023-05-17T21:00:12.269Z,2.85
2023-05-17T21:02:39.537Z,1.92
2023-05-17T21:05:06.889Z,3.05
2023-05-17T21:07:35.033Z,5.05
2023-05-17T21:10:04.477Z,2.53
2023-05-17T21:12:31.516Z,2.92
2023-05-17T21:15:15.142Z,3.13
2023-05-17T21:17:43.799Z,8.50
2023-05-17T21:20:11.619Z,1.92
2023-05-17T21:22:38.676Z,3.13
2023-05-17T21:25:08.554Z,1.05
2023-05-17T21:27:35.707Z,3.47
2023-05-17T21:30:02.592Z,1.17
2023-05-17T21:32:29.786Z,3.45
2023-05-17T21:34:58.528Z,4.15
2023-05-17T21:37:26.493Z,1.65
2023-05-17T21:39:53.787Z,3.97
2023-05-17T21:42:21.476Z,1.88
2023-05-17T21:44:49.980Z,4.20
2023-05-17T21:47:16.932Z,2.22
2023-05-17T21:49:46.788Z,4.40
2023-05-17T21:52:13.702Z,3.40
2023-05-17T21:54:41.442Z,4.57
2023-05-17T21:57:08.490Z,3.92
2023-05-17T21:59:35.961Z,2.70
2023-05-17T22:02:02.960Z,2.08
2023-05-17T22:04:29.800Z,2.70
2023-05-17T22:06:56.936Z,1.80
2023-05-17T22:09:23.896Z,3.20
2023-05-17T22:11:50.982Z,4.50
2023-05-17T22:14:17.992Z,3.42
2023-05-17T22:16:44.817Z,3.00
2023-05-17T22:19:14.330Z,2.22
2023-05-17T22:21:41.589Z,8.65
2023-05-17T22:24:08.597Z,9.02
2023-05-17T22:26:35.627Z,1.95
2023-05-17T22:29:03.947Z,2.42
2023-05-17T22:31:31.815Z,3.78
2023-05-17T22:33:58.872Z,1.38
2023-05-17T22:36:27.004Z,6.45
2023-05-17T22:38:54.046Z,1.77
2023-05-17T22:41:21.717Z,4.22
2023-05-17T22:43:48.693Z,5.35
2023-05-17T22:46:16.276Z,1.88
2023-05-17T22:48:43.330Z,1.52
2023-05-17T22:51:10.380Z,2.83
2023-05-17T22:53:37.367Z,1.50
2023-05-17T22:56:04.785Z,1.63
2023-05-17T22:58:31.795Z,1.42
2023-05-17T23:00:59.503Z,1.15
2023-05-17T23:03:26.667Z,4.65
2023-05-17T23:06:02.618Z,0.70
2023-05-17T23:08:32.571Z,2.33
2023-05-17T23:10:59.780Z,0.73
2023-05-17T23:13:26.806Z,1.35
2023-05-17T23:15:54.006Z,3.20
2023-05-17T23:18:23.294Z,1.95
2023-05-17T23:20:50.389Z,3.20
2023-05-17T23:23:17.320Z,0.95
2023-05-17T23:25:50.846Z,1.95
2023-05-17T23:28:19.052Z,4.07
2023-05-17T23:30:48.772Z,1.40
2023-05-17T23:33:16.534Z,2.10
2023-05-17T23:35:44.029Z,0.70
2023-05-17T23:38:11.446Z,3.25
2023-05-17T23:40:38.507Z,1.85
2023-05-17T23:43:07.833Z,3.97
2023-05-17T23:45:35.772Z,1.30
2023-05-17T23:48:05.091Z,1.30
2023-05-17T23:50:34.053Z,6.28
2023-05-17T23:53:03.615Z,2.83
2023-05-17T23:55:31.207Z,1.02
2023-05-17T23:57:58.603Z,1.42
